createdAt,value
2023-04-22T00:02:24.444Z,95890.16
2023-04-22T00:04:52.380Z,95891.78
2023-04-22T00:07:21.035Z,95889.91
2023-04-22T00:09:48.868Z,95885.28
2023-04-22T00:12:16.659Z,95880.94
2023-04-22T00:14:44.367Z,95881.38
2023-04-22T00:17:12.387Z,95884.81
2023-04-22T00:19:43.909Z,95885.97
2023-04-22T00:22:11.630Z,95885.50
2023-04-22T00:24:39.377Z,95880.97
2023-04-22T00:27:08.143Z,95881.53
2023-04-22T00:29:36.228Z,95882.91
2023-04-22T00:32:04.311Z,95876.28
2023-04-22T00:34:32.041Z,95881.75
2023-04-22T00:37:01.374Z,95875.56
2023-04-22T00:39:29.265Z,95867.81
2023-04-22T00:41:57.284Z,95871.66
2023-04-22T00:44:26.432Z,95868.88
2023-04-22T00:46:54.392Z,95874.06
2023-04-22T00:49:23.317Z,95873.78
2023-04-22T00:51:51.100Z,95878.88
2023-04-22T00:54:20.332Z,95875.44
2023-04-22T00:56:48.228Z,95883.56
2023-04-22T00:59:16.299Z,95874.19
2023-04-22T01:01:44.525Z,95876.84
2023-04-22T01:04:14.388Z,95893.16
2023-04-22T01:06:44.338Z,95888.63
2023-04-22T01:09:12.287Z,95891.41
2023-04-22T01:11:41.826Z,95892.63
2023-04-22T01:14:09.655Z,95888.94
2023-04-22T01:16:39.449Z,95888.75
2023-04-22T01:19:08.227Z,95884.25
2023-04-22T01:21:37.595Z,95879.09
2023-04-22T01:24:07.679Z,95882.00
2023-04-22T01:26:35.725Z,95884.19
2023-04-22T01:29:04.239Z,95882.72
2023-04-22T01:31:32.398Z,95886.63
2023-04-22T01:34:00.657Z,95874.38
2023-04-22T01:36:29.032Z,95880.34
2023-04-22T01:38:57.749Z,95880.81
2023-04-22T01:41:27.043Z,95882.28
2023-04-22T01:43:55.251Z,95870.16
2023-04-22T01:46:23.062Z,95875.75
2023-04-22T01:48:51.838Z,95881.06
2023-04-22T01:51:21.372Z,95883.66
2023-04-22T01:53:50.330Z,95884.06
2023-04-22T01:56:18.558Z,95881.78
2023-04-22T01:58:47.742Z,95881.25
2023-04-22T02:01:15.807Z,95896.47
2023-04-22T02:03:43.650Z,95895.91
2023-04-22T02:06:11.540Z,95898.41
2023-04-22T02:08:39.378Z,95903.41
2023-04-22T02:11:07.335Z,95907.13
2023-04-22T02:13:39.382Z,95902.75
2023-04-22T02:16:09.499Z,95897.53
2023-04-22T02:18:37.838Z,95899.22
2023-04-22T02:21:05.652Z,95904.88
2023-04-22T02:23:33.602Z,95903.56
2023-04-22T02:26:01.676Z,95908.44
2023-04-22T02:28:29.420Z,95910.56
2023-04-22T02:30:57.261Z,95897.13
2023-04-22T02:33:26.559Z,95902.97
2023-04-22T02:35:54.365Z,95906.34
2023-04-22T02:38:22.138Z,95911.84
2023-04-22T02:40:49.868Z,95904.88
2023-04-22T02:43:17.593Z,95909.41
2023-04-22T02:45:45.395Z,95903.31
2023-04-22T02:48:13.141Z,95907.78
2023-04-22T02:50:42.366Z,95913.38
2023-04-22T02:53:10.817Z,95910.09
2023-04-22T02:55:40.223Z,95909.31
2023-04-22T02:58:08.850Z,95905.31
2023-04-22T03:00:36.831Z,95911.91
2023-04-22T03:03:05.361Z,95902.63
2023-04-22T03:05:33.272Z,95916.16
2023-04-22T03:08:02.392Z,95910.47
2023-04-22T03:10:30.224Z,95919.38
2023-04-22T03:12:57.994Z,95918.25
2023-04-22T03:15:25.774Z,95917.25
2023-04-22T03:17:53.619Z,95924.69
2023-04-22T03:20:21.829Z,95918.22
2023-04-22T03:22:49.634Z,95913.66
2023-04-22T03:25:18.896Z,95908.47
2023-04-22T03:27:46.687Z,95871.31
2023-04-22T03:30:14.624Z,95916.25
2023-04-22T03:32:42.419Z,95921.28
2023-04-22T03:35:10.697Z,95921.28
2023-04-22T03:37:38.419Z,95930.00
2023-04-22T03:40:08.479Z,95929.91
2023-04-22T03:42:37.665Z,95940.94
2023-04-22T03:45:06.403Z,95928.38
2023-04-22T03:47:34.509Z,95940.31
2023-04-22T03:50:02.252Z,95939.84
2023-04-22T03:52:29.993Z,95946.03
2023-04-22T03:54:58.108Z,95949.66
2023-04-22T03:57:27.948Z,95953.28
2023-04-22T03:59:57.134Z,95944.75
2023-04-22T04:02:25.035Z,95952.94
2023-04-22T04:04:53.011Z,95944.75
2023-04-22T04:07:21.164Z,95942.13
2023-04-22T04:09:48.897Z,95951.47
2023-04-22T04:12:16.719Z,95939.09
2023-04-22T04:14:44.467Z,95949.09
2023-04-22T04:17:14.120Z,95937.88
2023-04-22T04:19:42.319Z,95949.13
2023-04-22T04:22:11.200Z,95957.47
2023-04-22T04:24:41.891Z,95941.97
2023-04-22T04:27:09.934Z,95948.94
2023-04-22T04:29:37.936Z,95951.56
2023-04-22T04:32:06.764Z,95953.19
2023-04-22T04:34:37.714Z,95958.25
2023-04-22T04:37:05.540Z,95950.75
2023-04-22T04:39:34.001Z,95941.13
2023-04-22T04:42:01.757Z,95949.88
2023-04-22T04:44:31.744Z,95948.69
2023-04-22T04:46:59.605Z,95959.50
2023-04-22T04:49:30.710Z,95951.75
2023-04-22T04:51:59.993Z,95946.59
2023-04-22T04:54:27.901Z,95949.84
2023-04-22T04:56:57.366Z,95959.78
2023-04-22T04:59:25.307Z,95956.09
2023-04-22T05:01:53.248Z,95962.63
2023-04-22T05:04:21.403Z,95962.00
2023-04-22T05:06:49.526Z,95963.28
2023-04-22T05:09:18.677Z,95965.47
2023-04-22T05:11:46.644Z,95963.72
2023-04-22T05:14:14.425Z,95958.72
2023-04-22T05:16:42.640Z,95949.50
2023-04-22T05:19:10.388Z,95959.72
2023-04-22T05:21:38.118Z,95965.91
2023-04-22T05:24:06.206Z,95957.09
2023-04-22T05:26:35.436Z,95967.69
2023-04-22T05:29:03.195Z,95981.50
2023-04-22T05:31:31.081Z,95971.41
2023-04-22T05:33:58.949Z,95971.47
2023-04-22T05:36:30.552Z,95973.56
2023-04-22T05:38:59.115Z,95977.31
2023-04-22T05:41:27.278Z,95977.22
2023-04-22T05:43:56.412Z,95981.72
2023-04-22T05:46:24.230Z,95977.44
2023-04-22T05:48:52.137Z,95975.84
2023-04-22T05:51:20.099Z,95962.28
2023-04-22T05:53:47.868Z,95958.28
2023-04-22T05:56:15.629Z,95958.16
2023-04-22T05:58:43.401Z,95961.41
2023-04-22T06:01:12.640Z,95976.22
2023-04-22T06:03:40.886Z,95975.59
2023-04-22T06:06:09.621Z,95983.78
2023-04-22T06:08:37.449Z,95972.38
2023-04-22T06:11:05.393Z,95977.13
2023-04-22T06:13:33.202Z,95968.53
2023-04-22T06:16:01.430Z,95978.66
2023-04-22T06:18:32.339Z,95976.97
2023-04-22T06:21:00.143Z,95961.44
2023-04-22T06:23:28.005Z,95972.19
2023-04-22T06:25:55.787Z,95967.06
2023-04-22T06:28:23.598Z,95975.09
2023-04-22T06:30:51.455Z,95977.53
2023-04-22T06:33:19.284Z,95968.19
2023-04-22T06:35:48.521Z,95969.03
2023-04-22T06:38:16.598Z,95981.34
2023-04-22T06:40:44.520Z,95967.97
2023-04-22T06:43:12.287Z,95980.13
2023-04-22T06:45:39.981Z,95979.91
2023-04-22T06:48:07.746Z,95973.56
2023-04-22T06:50:35.528Z,95968.00
2023-04-22T06:53:04.828Z,95982.34
2023-04-22T06:55:32.568Z,95974.72
2023-04-22T06:58:00.419Z,95969.19
2023-04-22T07:00:28.192Z,95976.38
2023-04-22T07:02:56.099Z,95975.16
2023-04-22T07:05:23.996Z,95969.56
2023-04-22T07:07:52.044Z,95971.72
2023-04-22T07:10:21.404Z,95976.44
2023-04-22T07:12:49.327Z,95962.22
2023-04-22T07:15:17.295Z,95974.06
2023-04-22T07:17:45.056Z,95968.06
2023-04-22T07:20:13.088Z,95972.03
2023-04-22T07:22:40.899Z,95955.94
2023-04-22T07:25:09.224Z,95963.22
2023-04-22T07:27:38.714Z,95962.91
2023-04-22T07:30:08.891Z,95962.38
2023-04-22T07:32:36.703Z,95973.91
2023-04-22T07:35:04.637Z,95964.56
2023-04-22T07:37:32.416Z,95977.22
2023-04-22T07:40:00.285Z,95972.34
2023-04-22T07:42:28.179Z,95971.50
2023-04-22T07:44:57.392Z,95966.41
2023-04-22T07:47:25.165Z,95967.59
2023-04-22T07:49:53.028Z,95960.66
2023-04-22T07:52:21.067Z,95958.03
2023-04-22T07:54:48.792Z,95964.78
2023-04-22T07:57:16.602Z,95971.84
2023-04-22T07:59:44.312Z,95971.47
2023-04-22T08:02:13.588Z,95978.41
2023-04-22T08:04:41.372Z,95979.88
2023-04-22T08:07:30.399Z,95979.59
2023-04-22T08:09:57.110Z,95981.38
2023-04-22T08:12:25.156Z,95969.91
2023-04-22T08:14:52.920Z,95966.16
2023-04-22T08:17:22.957Z,95966.47
2023-04-22T08:19:50.973Z,95962.84
2023-04-22T08:22:18.947Z,95933.53
2023-04-22T08:24:46.780Z,95966.16
2023-04-22T08:27:14.614Z,95964.28
2023-04-22T08:29:42.718Z,95959.00
2023-04-22T08:32:10.965Z,95950.09
2023-04-22T08:34:40.360Z,95946.19
2023-04-22T08:37:09.122Z,95959.56
2023-04-22T08:39:37.122Z,95951.19
2023-04-22T08:42:05.349Z,95952.25
2023-04-22T08:44:33.208Z,95955.34
2023-04-22T08:47:03.060Z,95953.53
2023-04-22T08:49:31.936Z,95961.59
2023-04-22T08:52:01.242Z,95962.75
2023-04-22T08:54:29.180Z,95946.28
2023-04-22T08:56:58.085Z,95935.25
2023-04-22T08:59:25.972Z,95947.66
2023-04-22T09:01:56.455Z,95936.22
2023-04-22T09:04:24.676Z,95938.38
2023-04-22T09:06:52.520Z,95923.53
2023-04-22T09:09:22.320Z,95929.59
2023-04-22T09:11:50.232Z,95920.31
2023-04-22T09:14:18.325Z,95917.94
2023-04-22T09:16:48.882Z,95901.72
2023-04-22T09:19:16.724Z,95910.03
2023-04-22T09:21:45.908Z,95904.22
2023-04-22T09:24:15.487Z,95905.22
2023-04-22T09:26:44.716Z,95903.50
2023-04-22T09:29:15.884Z,95898.91
2023-04-22T09:31:43.818Z,95898.91
2023-04-22T09:34:11.582Z,95899.97
2023-04-22T09:36:39.458Z,95896.78
2023-04-22T09:39:08.831Z,95877.09
2023-04-22T09:41:38.612Z,95884.19
2023-04-22T09:44:11.275Z,95889.78
2023-04-22T09:46:39.083Z,95880.53
2023-04-22T09:49:06.795Z,95891.81
2023-04-22T09:51:34.571Z,95893.56
2023-04-22T09:54:06.258Z,95890.09
2023-04-22T09:56:48.556Z,95903.13
2023-04-22T09:59:22.021Z,95889.94
2023-04-22T10:01:51.127Z,95883.00
2023-04-22T10:04:21.691Z,95881.50
2023-04-22T10:06:50.007Z,95876.97
2023-04-22T10:09:20.031Z,95871.91
2023-04-22T10:11:48.912Z,95862.56
2023-04-22T10:14:18.349Z,95886.28
2023-04-22T10:16:48.208Z,95880.81
2023-04-22T10:19:18.595Z,95894.44
2023-04-22T10:21:48.561Z,95876.38
2023-04-22T10:24:18.165Z,95873.31
2023-04-22T10:26:50.742Z,95855.66
2023-04-22T10:29:21.146Z,95864.66
2023-04-22T10:31:57.326Z,95861.78
2023-04-22T10:34:25.510Z,95869.00
2023-04-22T10:36:58.767Z,95869.09
2023-04-22T10:39:28.135Z,95855.31
2023-04-22T10:42:05.263Z,95849.00
2023-04-22T10:44:49.419Z,95835.94
2023-04-22T10:47:28.197Z,95841.19
2023-04-22T10:50:18.101Z,95842.53
2023-04-22T10:52:49.575Z,95855.28
2023-04-22T10:55:18.002Z,95845.91
2023-04-22T10:57:47.597Z,95846.22
2023-04-22T11:03:19.054Z,95848.59
2023-04-22T11:05:47.291Z,95855.69
2023-04-22T11:08:20.556Z,95857.22
2023-04-22T11:10:50.276Z,95855.50
2023-04-22T11:13:20.589Z,95862.06
2023-04-22T11:15:51.436Z,95879.56
2023-04-22T11:18:21.809Z,95861.22
2023-04-22T11:20:50.942Z,95858.75
2023-04-22T11:23:23.522Z,95874.72
2023-04-22T11:25:56.209Z,95878.66
2023-04-22T11:28:24.324Z,95867.84
2023-04-22T11:30:53.772Z,95874.81
2023-04-22T11:33:21.620Z,95872.19
2023-04-22T11:35:51.618Z,95863.03
2023-04-22T11:38:19.394Z,95863.28
2023-04-22T11:40:47.835Z,95878.94
2023-04-22T11:43:16.132Z,95874.44
2023-04-22T11:45:43.956Z,95866.94
2023-04-22T11:48:13.704Z,95877.03
2023-04-22T11:50:44.115Z,95869.06
2023-04-22T11:53:17.428Z,95866.94
2023-04-22T11:55:47.024Z,95853.38
2023-04-22T11:58:16.023Z,95852.84
2023-04-22T12:00:45.385Z,95867.16
2023-04-22T12:03:19.735Z,95864.81
2023-04-22T12:05:48.543Z,95869.19
2023-04-22T12:08:17.621Z,95862.44
2023-04-22T12:10:47.425Z,95860.91
2023-04-22T12:13:21.921Z,95863.13
2023-04-22T12:15:54.247Z,95857.66
2023-04-22T12:18:31.496Z,95860.91
2023-04-22T12:21:09.238Z,95866.28
2023-04-22T12:23:43.476Z,95864.63
2023-04-22T12:26:11.321Z,95869.91
2023-04-22T12:28:39.903Z,95840.09
2023-04-22T12:31:08.591Z,95849.59
2023-04-22T12:33:39.067Z,95858.94
2023-04-22T12:36:07.531Z,95851.75
2023-04-22T12:38:36.197Z,95836.72
2023-04-22T12:41:04.281Z,95855.63
2023-04-22T12:43:35.204Z,95847.44
2023-04-22T12:46:03.056Z,95837.34
2023-04-22T12:48:31.396Z,95833.56
2023-04-22T12:51:00.790Z,95838.53
2023-04-22T12:53:29.231Z,95841.13
2023-04-22T12:55:58.360Z,95833.97
2023-04-22T12:58:28.098Z,95839.84
2023-04-22T13:00:55.895Z,95845.13
2023-04-22T13:03:24.359Z,95835.03
2023-04-22T13:05:53.097Z,95842.47
2023-04-22T13:08:22.293Z,95857.94
2023-04-22T13:10:50.430Z,95845.94
2023-04-22T13:13:19.487Z,95856.28
2023-04-22T13:15:50.079Z,95855.44
2023-04-22T13:18:18.023Z,95862.56
2023-04-22T13:20:46.291Z,95859.28
2023-04-22T13:23:14.888Z,95864.25
2023-04-22T13:25:44.069Z,95854.84
2023-04-22T13:28:12.516Z,95840.22
2023-04-22T13:30:40.405Z,95847.16
2023-04-22T13:33:08.378Z,95840.22
2023-04-22T13:35:36.657Z,95843.88
2023-04-22T13:38:05.142Z,95846.34
2023-04-22T13:40:33.104Z,95835.69
2023-04-22T13:43:02.298Z,95838.78
2023-04-22T13:45:30.464Z,95857.59
2023-04-22T13:47:58.338Z,95853.16
2023-04-22T13:50:26.153Z,95856.09
2023-04-22T13:52:54.170Z,95849.13
2023-04-22T13:55:21.928Z,95842.03
2023-04-22T13:57:51.768Z,95861.84
2023-04-22T14:00:22.042Z,95844.63
2023-04-22T14:02:50.096Z,95855.88
2023-04-22T14:05:18.194Z,95856.69
2023-04-22T14:07:46.030Z,95860.50
2023-04-22T14:10:13.994Z,95846.09
2023-04-22T14:12:42.231Z,95867.31
2023-04-22T14:15:11.547Z,95866.16
2023-04-22T14:17:41.417Z,95872.50
2023-04-22T14:20:11.138Z,95866.47
2023-04-22T14:22:39.017Z,95872.63
2023-04-22T14:25:08.256Z,95871.47
2023-04-22T14:27:36.099Z,95871.16
2023-04-22T14:30:05.005Z,95877.06
2023-04-22T14:32:33.196Z,95871.56
2023-04-22T14:35:03.102Z,95872.66
2023-04-22T14:37:31.797Z,95881.31
2023-04-22T14:39:59.712Z,95888.53
2023-04-22T14:42:28.252Z,95882.75
2023-04-22T14:44:56.216Z,95879.31
2023-04-22T14:47:24.561Z,95874.06
2023-04-22T14:49:52.600Z,95883.31
2023-04-22T14:52:22.032Z,95886.97
2023-04-22T14:54:51.822Z,95885.63
2023-04-22T14:57:20.043Z,95901.22
2023-04-22T14:59:47.774Z,95896.03
2023-04-22T15:02:17.001Z,95877.97
2023-04-22T15:04:45.384Z,95884.84
2023-04-22T15:07:13.117Z,95897.19
2023-04-22T15:09:42.619Z,95899.75
2023-04-22T15:12:10.849Z,95877.09
2023-04-22T15:14:39.872Z,95899.97
2023-04-22T15:17:07.753Z,95899.69
2023-04-22T15:19:35.604Z,95906.34
2023-04-22T15:22:03.532Z,95907.53
2023-04-22T15:24:31.732Z,95904.28
2023-04-22T15:27:01.277Z,95894.31
2023-04-22T15:29:29.416Z,95896.38
2023-04-22T15:31:57.925Z,95900.13
2023-04-22T15:34:26.081Z,95889.69
2023-04-22T15:36:54.422Z,95885.50
2023-04-22T15:39:22.444Z,95897.41
2023-04-22T15:41:50.415Z,95893.38
2023-04-22T15:44:19.592Z,95896.53
2023-04-22T15:46:47.628Z,95905.94
2023-04-22T15:49:16.644Z,95906.97
2023-04-22T15:51:44.553Z,95898.72
2023-04-22T15:54:13.862Z,95901.81
2023-04-22T15:56:41.749Z,95885.19
2023-04-22T15:59:09.636Z,95900.03
2023-04-22T16:01:40.564Z,95891.06
2023-04-22T16:04:08.905Z,95885.50
2023-04-22T16:06:38.128Z,95885.31
2023-04-22T16:09:06.060Z,95888.09
2023-04-22T16:11:34.051Z,95886.75
2023-04-22T16:14:01.752Z,95887.44
2023-04-22T16:16:29.642Z,95884.50
2023-04-22T16:18:59.542Z,95890.41
2023-04-22T16:21:28.714Z,95894.41
2023-04-22T16:23:56.499Z,95892.72
2023-04-22T16:26:24.400Z,95893.81
2023-04-22T16:28:52.212Z,95888.44
2023-04-22T16:31:22.923Z,95883.34
2023-04-22T16:33:51.348Z,95889.56
2023-04-22T16:36:20.515Z,95880.34
2023-04-22T16:38:48.300Z,95885.09
2023-04-22T16:41:16.247Z,95875.75
2023-04-22T16:43:44.133Z,95869.28
2023-04-22T16:46:11.941Z,95858.16
2023-04-22T16:48:39.805Z,95866.19
2023-04-22T16:51:07.731Z,95858.44
2023-04-22T16:53:37.211Z,95864.56
2023-04-22T16:56:05.849Z,95869.50
2023-04-22T16:58:33.639Z,95862.63
2023-04-22T17:01:01.532Z,95858.84
2023-04-22T17:03:29.559Z,95866.97
2023-04-22T17:05:57.450Z,95869.09
2023-04-22T17:08:25.352Z,95877.63
2023-04-22T17:10:54.540Z,95869.16
2023-04-22T17:13:22.354Z,95872.72
2023-04-22T17:15:50.333Z,95879.34
2023-04-22T17:18:18.175Z,95874.44
2023-04-22T17:20:46.073Z,95885.44
2023-04-22T17:23:13.916Z,95887.06
2023-04-22T17:25:41.659Z,95892.44
2023-04-22T17:28:11.542Z,95892.66
2023-04-22T17:30:39.609Z,95877.38
2023-04-22T17:33:07.447Z,95881.47
2023-04-22T17:35:35.233Z,95884.19
2023-04-22T17:38:03.008Z,95891.22
2023-04-22T17:40:30.953Z,95883.94
2023-04-22T17:42:58.839Z,95889.06
2023-04-22T17:45:28.049Z,95896.06
2023-04-22T17:47:55.821Z,95911.19
2023-04-22T17:50:23.912Z,95898.25
2023-04-22T17:52:51.819Z,95905.84
2023-04-22T17:55:19.961Z,95892.16
2023-04-22T17:57:47.738Z,95907.47
2023-04-22T18:00:17.990Z,95895.06
2023-04-22T18:02:47.757Z,95894.56
2023-04-22T18:05:15.702Z,95894.00
2023-04-22T18:07:43.460Z,95879.53
2023-04-22T18:10:12.733Z,95891.09
2023-04-22T18:12:41.293Z,95888.09
2023-04-22T18:15:09.838Z,95889.72
2023-04-22T18:17:37.636Z,95884.91
2023-04-22T18:20:17.443Z,95875.75
2023-04-22T18:22:47.532Z,95865.28
2023-04-22T18:25:15.433Z,95865.00
2023-04-22T18:27:43.149Z,95864.22
2023-04-22T18:30:11.545Z,95833.81
2023-04-22T18:32:39.665Z,95852.66
2023-04-22T18:35:10.512Z,95843.00
2023-04-22T18:37:38.322Z,95848.94
2023-04-22T18:40:07.387Z,95864.50
2023-04-22T18:42:35.331Z,95872.84
2023-04-22T18:45:04.873Z,95868.03
2023-04-22T18:47:33.265Z,95871.53
2023-04-22T18:50:01.338Z,95863.69
2023-04-22T18:52:30.585Z,95860.19
2023-04-22T18:54:58.426Z,95870.94
2023-04-22T18:57:26.468Z,95864.47
2023-04-22T18:59:54.994Z,95870.66
2023-04-22T19:02:22.927Z,95880.34
2023-04-22T19:04:51.011Z,95887.59
2023-04-22T19:07:18.799Z,95886.53
2023-04-22T19:09:47.958Z,95882.22
2023-04-22T19:12:18.825Z,95879.78
2023-04-22T19:14:47.807Z,95882.19
2023-04-22T19:17:15.670Z,95878.69
2023-04-22T19:19:44.353Z,95882.38
2023-04-22T19:22:13.263Z,95876.16
2023-04-22T19:24:41.139Z,95885.06
2023-04-22T19:27:12.522Z,95882.31
2023-04-22T19:29:41.580Z,95889.59
2023-04-22T19:32:10.958Z,95903.84
2023-04-22T19:34:39.788Z,95897.63
2023-04-22T19:37:08.222Z,95899.31
2023-04-22T19:39:36.425Z,95897.34
2023-04-22T19:42:04.329Z,95901.19
2023-04-22T19:44:33.671Z,95892.25
2023-04-22T19:47:01.920Z,95906.50
2023-04-22T19:49:32.420Z,95905.34
2023-04-22T19:52:02.847Z,95906.16
2023-04-22T19:54:31.406Z,95905.41
2023-04-22T19:56:59.677Z,95906.75
2023-04-22T19:59:31.645Z,95897.63
2023-04-22T20:02:01.463Z,95899.50
2023-04-22T20:04:29.965Z,95908.38
2023-04-22T20:07:00.778Z,95892.25
2023-04-22T20:09:34.174Z,95910.75
2023-04-22T20:12:02.807Z,95920.13
2023-04-22T20:14:31.906Z,95907.53
2023-04-22T20:17:01.620Z,95899.22
2023-04-22T20:19:30.775Z,95906.22
2023-04-22T20:21:59.731Z,95897.53
2023-04-22T20:24:29.173Z,95889.34
2023-04-22T20:26:57.164Z,95905.56
2023-04-22T20:29:25.560Z,95906.13
2023-04-22T20:31:55.576Z,95909.38
2023-04-22T20:34:26.084Z,95911.53
2023-04-22T20:36:54.869Z,95913.69
2023-04-22T20:39:23.803Z,95903.00
2023-04-22T20:41:55.641Z,95892.53
2023-04-22T20:44:23.536Z,95886.88
2023-04-22T20:46:51.509Z,95892.78
2023-04-22T20:49:19.350Z,95888.50
2023-04-22T20:51:48.514Z,95886.41
2023-04-22T20:54:27.939Z,95892.28
2023-04-22T20:56:57.766Z,95895.28
2023-04-22T20:59:25.607Z,95888.53
2023-04-22T21:01:54.828Z,95876.94
2023-04-22T21:04:23.865Z,95883.84
2023-04-22T21:06:54.597Z,95885.25
2023-04-22T21:09:24.993Z,95883.63
2023-04-22T21:11:53.461Z,95880.97
2023-04-22T21:14:22.268Z,95878.28
2023-04-22T21:16:57.886Z,95874.00
2023-04-22T21:19:27.214Z,95874.28
2023-04-22T21:21:57.731Z,95883.72
2023-04-22T21:24:26.219Z,95874.56
2023-04-22T21:26:54.824Z,95878.28
2023-04-22T21:29:23.042Z,95876.69
2023-04-22T21:32:04.943Z,95875.69
2023-04-22T21:34:36.282Z,95867.06
2023-04-22T21:37:06.401Z,95899.75
2023-04-22T21:39:34.214Z,95888.56
2023-04-22T21:42:07.447Z,95902.66
2023-04-22T21:44:36.307Z,95911.59
2023-04-22T21:47:04.519Z,95900.34
2023-04-22T21:49:32.518Z,95902.53
2023-04-22T21:52:01.093Z,95901.69
2023-04-22T21:54:30.704Z,95908.69
2023-04-22T21:56:58.754Z,95909.16
2023-04-22T21:59:26.573Z,95913.34
2023-04-22T22:01:54.492Z,95911.91
2023-04-22T22:04:22.440Z,95917.25
2023-04-22T22:06:50.358Z,95919.75
2023-04-22T22:09:18.182Z,95917.63
2023-04-22T22:11:47.385Z,95911.44
2023-04-22T22:14:15.563Z,95932.22
2023-04-22T22:16:43.981Z,95915.78
2023-04-22T22:19:12.253Z,95933.44
2023-04-22T22:21:40.414Z,95939.59
2023-04-22T22:24:09.461Z,95937.44
2023-04-22T22:26:37.454Z,95939.03
2023-04-22T22:29:06.514Z,95944.16
2023-04-22T22:31:34.341Z,95941.22
2023-04-22T22:34:02.088Z,95947.50
2023-04-22T22:36:29.804Z,95924.69
2023-04-22T22:38:57.680Z,95932.28
2023-04-22T22:41:25.510Z,95941.19
2023-04-22T22:43:53.326Z,95940.88
2023-04-22T22:46:22.591Z,95943.31
2023-04-22T22:48:50.675Z,95943.78
2023-04-22T22:51:18.783Z,95951.56
2023-04-22T22:53:46.761Z,95956.34
2023-04-22T22:56:15.400Z,95954.47
2023-04-22T22:58:43.212Z,95952.56
2023-04-22T23:01:11.060Z,95953.44
2023-04-22T23:03:40.400Z,95956.16
2023-04-22T23:06:08.810Z,95956.97
2023-04-22T23:08:36.618Z,95955.19
2023-04-22T23:11:04.462Z,95954.09
2023-04-22T23:13:32.324Z,95964.84
2023-04-22T23:16:00.656Z,95968.25
2023-04-22T23:18:29.737Z,95967.66
2023-04-22T23:21:01.545Z,95968.75
2023-04-22T23:23:30.175Z,95964.41
2023-04-22T23:26:00.779Z,95953.47
2023-04-22T23:28:29.182Z,95965.59
2023-04-22T23:30:57.157Z,95958.84
2023-04-22T23:33:26.245Z,95954.88
2023-04-22T23:35:54.281Z,95964.06
2023-04-22T23:38:24.087Z,95956.56
2023-04-22T23:40:51.873Z,95952.56
2023-04-22T23:43:19.646Z,95957.69
2023-04-22T23:45:47.368Z,95966.59
2023-04-22T23:48:15.129Z,95958.88
2023-04-22T23:50:43.002Z,95960.59
2023-04-22T23:53:10.758Z,95949.81
2023-04-22T23:55:41.086Z,95956.03
2023-04-22T23:58:09.120Z,95957.63
